createdAt,value
2022-09-26T00:01:51.192Z,23.30
2022-09-26T00:04:24.111Z,22.97
2022-09-26T00:06:56.454Z,22.53
2022-09-26T00:09:28.570Z,21.07
2022-09-26T00:11:58.135Z,22.40
2022-09-26T00:14:29.906Z,21.43
2022-09-26T00:16:59.605Z,22.63
2022-09-26T00:19:28.819Z,23.27
2022-09-26T00:21:57.900Z,22.47
2022-09-26T00:24:28.698Z,23.77
2022-09-26T00:26:57.759Z,25.67
2022-09-26T00:29:26.986Z,24.53
2022-09-26T00:31:56.248Z,24.07
2022-09-26T00:34:25.359Z,24.50
2022-09-26T00:36:54.793Z,25.70
2022-09-26T00:39:23.967Z,24.90
2022-09-26T00:41:54.611Z,24.83
2022-09-26T00:44:48.918Z,23.87
2022-09-26T00:47:34.109Z,24.33
2022-09-26T00:50:05.969Z,24.27
2022-09-26T00:52:39.688Z,22.77
2022-09-26T00:55:12.807Z,25.60
2022-09-26T00:57:47.309Z,23.90
2022-09-26T01:00:50.291Z,24.27
2022-09-26T01:03:21.401Z,23.03
2022-09-26T01:05:50.836Z,21.93
2022-09-26T01:08:27.008Z,24.03
2022-09-26T01:10:57.536Z,23.77
2022-09-26T01:13:28.331Z,22.67
2022-09-26T01:15:59.421Z,23.83
2022-09-26T01:18:29.108Z,23.63
2022-09-26T01:21:08.127Z,23.87
2022-09-26T01:24:06.750Z,23.80
2022-09-26T01:27:02.638Z,22.60
2022-09-26T01:30:06.031Z,23.10
2022-09-26T01:33:07.830Z,23.07
2022-09-26T01:36:07.071Z,23.33
2022-09-26T01:38:45.472Z,23.00
2022-09-26T01:41:33.150Z,24.10
2022-09-26T01:44:16.413Z,23.53
2022-09-26T01:46:52.511Z,22.17
2022-09-26T01:49:27.325Z,22.57
2022-09-26T01:52:01.400Z,22.47
2022-09-26T01:54:37.754Z,23.60
2022-09-26T01:57:12.619Z,22.10
2022-09-26T01:59:47.404Z,21.60
2022-09-26T02:02:25.742Z,22.57
2022-09-26T02:04:58.629Z,23.53
2022-09-26T02:07:34.914Z,22.17
2022-09-26T02:10:13.598Z,22.93
2022-09-26T02:12:48.459Z,21.53
2022-09-26T02:15:21.520Z,21.67
2022-09-26T02:17:56.948Z,21.27
2022-09-26T02:20:32.379Z,21.07
2022-09-26T02:23:04.486Z,20.67
2022-09-26T02:25:34.719Z,21.47
2022-09-26T02:28:06.334Z,21.57
2022-09-26T02:30:35.878Z,19.30
2022-09-26T02:33:06.988Z,21.27
2022-09-26T02:35:54.112Z,20.97
2022-09-26T02:38:23.858Z,22.80
2022-09-26T02:41:08.008Z,21.93
2022-09-26T02:44:04.274Z,20.87
2022-09-26T02:46:54.468Z,21.37
2022-09-26T02:49:56.140Z,22.03
2022-09-26T02:52:37.488Z,21.57
2022-09-26T02:55:17.092Z,21.77
2022-09-26T02:57:56.202Z,20.40
2022-09-26T03:00:32.003Z,21.97
2022-09-26T03:03:08.249Z,21.23
2022-09-26T03:05:41.895Z,20.17
2022-09-26T03:08:15.975Z,20.23
2022-09-26T03:10:47.735Z,20.10
2022-09-26T03:13:19.909Z,19.87
2022-09-26T03:15:53.731Z,20.93
2022-09-26T03:18:30.329Z,20.43
2022-09-26T03:21:00.848Z,20.70
2022-09-26T03:23:30.876Z,20.53
2022-09-26T03:26:09.416Z,18.90
2022-09-26T03:28:41.666Z,20.57
2022-09-26T03:31:10.889Z,20.20
2022-09-26T03:34:00.272Z,21.90
2022-09-26T03:36:32.430Z,21.53
2022-09-26T03:39:03.569Z,19.47
2022-09-26T03:41:42.448Z,19.57
2022-09-26T03:44:21.901Z,20.17
2022-09-26T03:47:06.330Z,21.30
2022-09-26T03:49:41.519Z,21.10
2022-09-26T03:52:13.995Z,21.63
2022-09-26T03:54:45.195Z,20.50
2022-09-26T03:57:14.708Z,19.93
2022-09-26T03:59:50.469Z,21.50
2022-09-26T04:02:21.394Z,19.87
2022-09-26T04:04:59.080Z,19.97
2022-09-26T04:07:29.675Z,22.20
2022-09-26T04:09:59.654Z,19.33
2022-09-26T04:12:29.653Z,19.93
2022-09-26T04:14:58.909Z,20.87
2022-09-26T04:17:28.283Z,21.03
2022-09-26T04:19:57.325Z,18.90
2022-09-26T04:22:27.496Z,19.63
2022-09-26T04:24:58.557Z,18.63
2022-09-26T04:27:29.103Z,19.73
2022-09-26T04:29:59.092Z,22.27
2022-09-26T04:32:48.647Z,19.53
2022-09-26T04:35:36.060Z,19.47
2022-09-26T04:38:05.545Z,19.70
2022-09-26T04:40:41.975Z,19.43
2022-09-26T04:43:13.357Z,19.40
2022-09-26T04:45:43.810Z,19.23
2022-09-26T04:48:14.593Z,20.67
2022-09-26T04:50:46.724Z,20.20
2022-09-26T04:53:16.446Z,23.27
2022-09-26T04:55:58.217Z,19.00
2022-09-26T04:58:27.715Z,20.10
2022-09-26T05:00:57.153Z,18.83
2022-09-26T05:03:37.378Z,18.40
2022-09-26T05:06:09.199Z,18.73
2022-09-26T05:08:39.207Z,18.83
2022-09-26T05:11:10.956Z,19.63
2022-09-26T05:13:40.139Z,18.13
2022-09-26T05:16:10.191Z,18.67
2022-09-26T05:18:42.057Z,18.13
2022-09-26T05:21:11.256Z,18.97
2022-09-26T05:23:57.788Z,18.23
2022-09-26T05:26:31.429Z,19.23
2022-09-26T05:29:17.055Z,18.30
2022-09-26T05:31:56.422Z,17.20
2022-09-26T05:34:27.567Z,16.70
2022-09-26T05:36:57.486Z,19.13
2022-09-26T05:39:44.086Z,16.87
2022-09-26T05:42:16.767Z,18.20
2022-09-26T05:44:45.988Z,17.27
2022-09-26T05:47:15.662Z,17.87
2022-09-26T05:49:45.147Z,18.97
2022-09-26T05:52:17.090Z,17.53
2022-09-26T05:54:46.227Z,17.27
2022-09-26T05:57:35.409Z,17.43
2022-09-26T06:00:06.275Z,17.90
2022-09-26T06:02:47.298Z,18.43
2022-09-26T06:05:26.908Z,17.27
2022-09-26T06:08:17.567Z,18.03
2022-09-26T06:10:51.098Z,17.17
2022-09-26T06:13:22.137Z,18.30
2022-09-26T06:15:52.406Z,17.47
2022-09-26T06:18:22.527Z,17.20
2022-09-26T06:20:52.500Z,18.07
2022-09-26T06:23:21.736Z,19.10
2022-09-26T06:25:51.421Z,18.27
2022-09-26T06:28:22.212Z,19.33
2022-09-26T06:30:52.870Z,18.03
2022-09-26T06:33:40.687Z,17.93
2022-09-26T06:36:20.177Z,18.00
2022-09-26T06:38:49.469Z,18.60
2022-09-26T06:41:20.497Z,17.83
2022-09-26T06:43:51.176Z,18.87
2022-09-26T06:46:49.496Z,17.97
2022-09-26T06:49:24.413Z,18.87
2022-09-26T06:52:04.919Z,18.60
2022-09-26T06:54:34.119Z,20.17
2022-09-26T06:57:03.879Z,19.43
2022-09-26T06:59:36.748Z,20.60
2022-09-26T07:02:20.753Z,18.93
2022-09-26T07:05:09.179Z,19.97
2022-09-26T07:07:45.791Z,20.80
2022-09-26T07:10:26.763Z,22.40
2022-09-26T07:13:06.513Z,20.87
2022-09-26T07:15:38.404Z,20.27
2022-09-26T07:18:43.082Z,20.70
2022-09-26T07:21:26.483Z,21.33
2022-09-26T08:04:39.777Z,20.53
2022-09-26T08:07:12.893Z,20.97
2022-09-26T08:09:51.285Z,21.63
2022-09-26T08:12:46.354Z,21.38
2022-09-26T08:15:34.174Z,21.02
2022-09-26T08:18:07.445Z,22.23
2022-09-26T08:20:37.107Z,21.73
2022-09-26T08:23:07.986Z,22.17
2022-09-26T08:25:37.452Z,22.85
2022-09-26T08:28:29.093Z,22.42
2022-09-26T08:31:01.395Z,22.85
2022-09-26T08:33:30.565Z,23.57
2022-09-26T08:36:06.646Z,24.15
2022-09-26T08:38:57.484Z,26.40
2022-09-26T08:42:24.047Z,25.92
2022-09-26T08:46:04.894Z,27.03
2022-09-26T08:49:01.214Z,26.47
2022-09-26T08:51:34.275Z,28.40
2022-09-26T08:54:12.953Z,27.50
2022-09-26T08:56:47.184Z,28.63
2022-09-26T08:59:29.745Z,30.50
2022-09-26T09:02:06.000Z,30.73
2022-09-26T09:04:57.712Z,28.07
2022-09-26T09:07:29.114Z,29.77
2022-09-26T09:10:03.396Z,28.67
2022-09-26T09:13:06.384Z,29.53
2022-09-26T09:16:02.739Z,30.57
2022-09-26T09:19:06.277Z,29.47
2022-09-26T09:22:23.794Z,29.43
2022-09-26T09:25:11.626Z,29.10
2022-09-26T09:28:02.557Z,28.50
2022-09-26T09:30:42.164Z,27.48
2022-09-26T09:33:36.171Z,26.95
2022-09-26T09:36:42.091Z,27.13
2022-09-26T09:39:34.536Z,25.58
2022-09-26T09:42:25.286Z,28.05
2022-09-26T09:44:59.624Z,27.05
2022-09-26T09:47:30.384Z,27.88
2022-09-26T09:50:01.264Z,26.42
2022-09-26T09:52:51.393Z,27.95
2022-09-26T09:55:36.471Z,25.88
2022-09-26T09:58:30.423Z,25.30
2022-09-26T10:01:12.786Z,25.20
2022-09-26T10:03:53.416Z,22.52
2022-09-26T10:06:44.758Z,22.60
2022-09-26T10:12:50.242Z,22.52
2022-09-26T10:16:08.912Z,20.67
2022-09-26T10:19:03.558Z,20.88
2022-09-26T10:21:39.802Z,20.70
2022-09-26T10:24:24.232Z,15.68
2022-09-26T10:27:00.132Z,14.93
2022-09-26T10:29:38.561Z,14.82
2022-09-26T10:32:12.312Z,12.93
2022-09-26T10:35:04.162Z,13.93
2022-09-26T10:37:37.924Z,14.25
2022-09-26T10:40:45.680Z,13.63
2022-09-26T10:43:25.752Z,13.43
2022-09-26T10:46:06.626Z,12.30
2022-09-26T10:48:58.713Z,11.43
2022-09-26T10:51:55.881Z,11.07
2022-09-26T10:54:35.021Z,10.63
2022-09-26T10:57:09.643Z,10.57
2022-09-26T10:59:41.963Z,9.32
2022-09-26T11:02:20.408Z,10.95
2022-09-26T11:05:28.872Z,9.52
2022-09-26T11:08:14.442Z,9.50
2022-09-26T11:11:02.022Z,10.25
2022-09-26T11:13:48.391Z,10.05
2022-09-26T11:16:20.744Z,10.32
2022-09-26T11:19:04.048Z,10.63
2022-09-26T11:21:43.063Z,11.10
2022-09-26T11:24:21.592Z,11.77
2022-09-26T11:27:04.681Z,10.23
2022-09-26T11:29:45.084Z,10.40
2022-09-26T11:32:27.732Z,9.55
2022-09-26T11:35:04.688Z,8.70
2022-09-26T11:38:10.152Z,8.90
2022-09-26T11:41:03.477Z,10.05
2022-09-26T11:43:55.512Z,9.82
2022-09-26T11:47:21.043Z,9.65
2022-09-26T11:50:10.465Z,9.05
2022-09-26T11:53:16.312Z,7.50
2022-09-26T11:55:58.231Z,7.50
2022-09-26T11:58:38.792Z,7.60
2022-09-26T12:01:20.169Z,6.93
2022-09-26T12:04:20.244Z,7.13
2022-09-26T12:06:57.523Z,6.88
2022-09-26T12:09:45.652Z,6.93
2022-09-26T12:12:22.482Z,6.60
2022-09-26T12:15:10.072Z,8.02
2022-09-26T12:17:53.915Z,7.80
2022-09-26T12:20:32.482Z,8.23
2022-09-26T12:23:12.222Z,7.65
2022-09-26T12:25:56.633Z,9.13
2022-09-26T12:28:39.761Z,8.48
2022-09-26T12:31:19.957Z,9.50
2022-09-26T12:34:25.033Z,9.02
2022-09-26T12:37:09.675Z,8.35
2022-09-26T12:39:55.922Z,9.00
2022-09-26T12:42:44.073Z,9.70
2022-09-26T12:45:38.641Z,9.88
2022-09-26T12:48:37.684Z,9.77
2022-09-26T12:51:23.294Z,9.85
2022-09-26T12:54:15.351Z,9.77
2022-09-26T12:56:53.493Z,9.73
2022-09-26T12:59:41.442Z,10.40
2022-09-26T13:02:34.049Z,9.40
2022-09-26T13:05:36.551Z,9.48
2022-09-26T13:08:13.012Z,9.82
2022-09-26T13:10:57.262Z,9.07
2022-09-26T13:13:56.073Z,8.45
2022-09-26T13:16:38.161Z,8.45
2022-09-26T13:19:16.877Z,9.13
2022-09-26T13:21:50.513Z,9.32
2022-09-26T13:24:25.988Z,8.60
2022-09-26T13:27:05.801Z,7.90
2022-09-26T13:29:38.322Z,8.02
2022-09-26T13:32:19.031Z,7.18
2022-09-26T13:34:55.074Z,7.50
2022-09-26T13:37:39.363Z,8.00
2022-09-26T13:40:23.117Z,8.32
2022-09-26T13:43:04.487Z,8.68
2022-09-26T13:45:49.293Z,8.50
2022-09-26T13:48:29.113Z,8.95
2022-09-26T13:51:07.123Z,7.63
2022-09-26T13:53:42.322Z,8.23
2022-09-26T13:56:48.622Z,7.68
2022-09-26T13:59:54.627Z,8.60
2022-09-26T14:02:29.193Z,8.73
2022-09-26T14:05:48.244Z,7.80
2022-09-26T14:08:53.674Z,8.40
2022-09-26T14:11:30.872Z,8.40
2022-09-26T14:14:37.122Z,8.05
2022-09-26T14:29:36.531Z,8.05
2022-09-26T14:32:16.856Z,7.70
2022-09-26T14:34:47.263Z,8.80
2022-09-26T14:37:40.563Z,8.20
2022-09-26T14:40:29.551Z,7.60
2022-09-26T14:43:06.452Z,8.30
2022-09-26T14:45:51.464Z,7.53
2022-09-26T14:48:32.546Z,7.47
2022-09-26T14:51:04.922Z,7.97
2022-09-26T14:53:43.522Z,7.68
2022-09-26T14:56:17.453Z,8.30
2022-09-26T14:58:52.392Z,7.90
2022-09-26T15:01:29.323Z,8.25
2022-09-26T15:04:06.690Z,7.80
2022-09-26T15:06:43.213Z,8.30
2022-09-26T15:09:21.882Z,8.93
2022-09-26T15:11:58.853Z,9.35
2022-09-26T15:14:34.191Z,8.70
2022-09-26T15:17:03.899Z,8.32
2022-09-26T15:19:37.174Z,8.50
2022-09-26T15:22:12.992Z,9.25
2022-09-26T15:24:43.874Z,8.75
2022-09-26T15:27:27.545Z,8.15
2022-09-26T15:30:04.101Z,8.43
2022-09-26T15:32:35.022Z,8.55
2022-09-26T15:35:04.750Z,9.23
2022-09-26T15:37:36.440Z,8.02
2022-09-26T15:40:18.897Z,8.60
2022-09-26T15:43:01.039Z,8.95
2022-09-26T15:45:33.792Z,9.20
2022-09-26T15:48:05.402Z,9.75
2022-09-26T15:50:42.353Z,8.75
2022-09-26T15:53:26.195Z,8.75
2022-09-26T15:56:03.304Z,8.57
2022-09-26T15:58:38.838Z,8.60
2022-09-26T16:01:09.428Z,9.52
2022-09-26T16:03:43.544Z,9.45
2022-09-26T16:06:23.770Z,10.38
2022-09-26T16:08:57.241Z,9.70
2022-09-26T16:11:28.280Z,10.73
2022-09-26T16:13:58.440Z,11.45
2022-09-26T16:16:32.146Z,10.10
2022-09-26T16:19:05.573Z,9.65
2022-09-26T16:21:37.832Z,10.45
2022-09-26T16:24:35.718Z,9.50
2022-09-26T16:27:24.170Z,9.25
2022-09-26T16:29:54.430Z,8.93
2022-09-26T16:32:24.829Z,10.57
2022-09-26T16:34:54.119Z,10.30
2022-09-26T16:37:24.435Z,9.65
2022-09-26T16:39:59.586Z,10.88
2022-09-26T16:42:33.752Z,9.82
2022-09-26T16:45:06.454Z,10.27
2022-09-26T16:47:42.949Z,10.95
2022-09-26T16:50:19.951Z,10.13
2022-09-26T16:52:49.331Z,11.00
2022-09-26T16:55:18.610Z,11.23
2022-09-26T16:57:53.971Z,10.98
2022-09-26T17:00:42.451Z,11.73
2022-09-26T17:03:23.404Z,11.50
2022-09-26T17:05:55.056Z,10.20
2022-09-26T17:08:25.571Z,10.63
2022-09-26T17:10:56.693Z,10.60
2022-09-26T17:13:31.298Z,10.00
2022-09-26T17:16:03.855Z,10.73
2022-09-26T17:18:34.140Z,10.48
2022-09-26T17:21:03.802Z,10.43
2022-09-26T17:23:41.173Z,13.48
2022-09-26T17:26:19.863Z,10.75
2022-09-26T17:28:53.119Z,10.35
2022-09-26T17:31:22.343Z,9.57
2022-09-26T17:33:54.698Z,9.35
2022-09-26T17:36:25.891Z,8.60
2022-09-26T17:38:57.969Z,8.30
2022-09-26T17:41:28.218Z,7.97
2022-09-26T17:44:04.531Z,7.73
2022-09-26T17:46:38.743Z,8.07
2022-09-26T17:49:14.492Z,7.83
2022-09-26T17:51:43.946Z,8.60
2022-09-26T17:54:20.675Z,7.83
2022-09-26T17:56:50.099Z,9.53
2022-09-26T17:59:23.685Z,8.47
2022-09-26T18:01:55.633Z,10.70
2022-09-26T18:04:29.429Z,8.07
2022-09-26T18:07:02.713Z,7.10
2022-09-26T18:09:35.798Z,8.17
2022-09-26T18:12:06.060Z,7.47
2022-09-26T18:14:39.123Z,8.77
2022-09-26T18:17:08.400Z,8.23
2022-09-26T18:19:38.828Z,7.83
2022-09-26T18:22:12.298Z,8.77
2022-09-26T18:24:41.694Z,8.10
2022-09-26T18:27:14.128Z,8.77
2022-09-26T18:29:47.145Z,7.57
2022-09-26T18:32:25.276Z,5.83
2022-09-26T18:34:55.259Z,5.83
2022-09-26T18:37:24.743Z,5.37
2022-09-26T18:39:56.395Z,5.60
2022-09-26T18:42:28.138Z,4.33
2022-09-26T18:45:05.568Z,4.33
2022-09-26T18:47:40.697Z,4.00
2022-09-26T18:50:20.153Z,4.20
2022-09-26T18:52:49.735Z,3.33
2022-09-26T18:55:41.484Z,3.10
2022-09-26T18:58:26.177Z,3.90
2022-09-26T19:01:00.147Z,2.80
2022-09-26T19:03:31.816Z,2.60
2022-09-26T19:06:05.057Z,2.90
2022-09-26T19:08:37.354Z,3.00
2022-09-26T19:11:13.354Z,3.10
2022-09-26T19:13:42.943Z,3.50
2022-09-26T19:16:16.300Z,3.20
2022-09-26T19:18:45.830Z,3.20
2022-09-26T19:21:20.165Z,3.60
2022-09-26T19:23:50.683Z,3.40
2022-09-26T19:26:26.869Z,3.57
2022-09-26T19:28:58.101Z,3.73
2022-09-26T19:31:30.526Z,3.97
2022-09-26T19:33:59.795Z,3.70
2022-09-26T19:36:28.985Z,4.03
2022-09-26T19:38:58.126Z,3.97
2022-09-26T19:41:27.182Z,4.47
2022-09-26T19:43:57.890Z,5.20
2022-09-26T19:46:30.785Z,5.30
2022-09-26T19:49:00.786Z,5.10
2022-09-26T19:51:30.209Z,5.00
2022-09-26T19:54:02.715Z,5.73
2022-09-26T19:56:35.633Z,5.63
2022-09-26T19:59:04.742Z,6.53
2022-09-26T20:01:35.488Z,6.53
2022-09-26T20:04:04.775Z,6.20
2022-09-26T20:06:34.008Z,6.70
2022-09-26T20:09:03.308Z,6.80
2022-09-26T20:11:32.474Z,7.00
2022-09-26T20:14:18.859Z,7.17
2022-09-26T20:16:50.038Z,7.60
2022-09-26T20:19:28.924Z,8.40
2022-09-26T20:22:00.255Z,8.37
2022-09-26T20:24:31.486Z,8.23
2022-09-26T20:27:03.317Z,8.27
2022-09-26T20:29:52.476Z,9.20
2022-09-26T20:32:23.169Z,8.70
2022-09-26T20:34:52.293Z,9.17
2022-09-26T20:37:23.648Z,8.73
2022-09-26T20:39:53.386Z,9.43
2022-09-26T20:42:28.197Z,9.27
2022-09-26T20:44:57.458Z,9.53
2022-09-26T20:47:29.537Z,9.83
2022-09-26T20:50:01.547Z,10.03
2022-09-26T20:52:32.022Z,9.90
2022-09-26T20:55:01.166Z,9.30
2022-09-26T20:57:30.729Z,9.03
2022-09-26T20:59:59.679Z,9.70
2022-09-26T21:02:35.239Z,8.97
2022-09-26T21:05:05.377Z,8.80
2022-09-26T21:07:34.713Z,9.77
2022-09-26T21:10:04.172Z,9.77
2022-09-26T21:12:33.174Z,9.87
2022-09-26T21:15:02.178Z,9.53
2022-09-26T21:17:32.737Z,10.20
2022-09-26T21:20:01.904Z,10.00
2022-09-26T21:22:49.694Z,9.87
2022-09-26T21:25:20.377Z,9.77
2022-09-26T21:27:51.519Z,11.10
2022-09-26T21:30:21.367Z,10.93
2022-09-26T21:32:54.580Z,10.77
2022-09-26T21:35:26.022Z,10.00
2022-09-26T21:37:56.497Z,11.27
2022-09-26T21:40:29.346Z,10.80
2022-09-26T21:43:04.250Z,11.40
2022-09-26T21:45:33.492Z,11.13
2022-09-26T21:48:04.582Z,11.70
2022-09-26T21:50:34.048Z,13.07
2022-09-26T21:53:07.534Z,12.50
2022-09-26T21:55:40.596Z,12.87
2022-09-26T21:58:13.367Z,12.47
2022-09-26T22:00:42.681Z,12.23
2022-09-26T22:03:13.325Z,12.67
2022-09-26T22:05:42.802Z,13.20
2022-09-26T22:08:12.511Z,12.93
2022-09-26T22:10:41.990Z,12.17
2022-09-26T22:13:11.377Z,14.03
2022-09-26T22:15:40.728Z,13.50
2022-09-26T22:18:10.194Z,12.90
2022-09-26T22:20:41.028Z,12.63
2022-09-26T22:23:10.245Z,14.17
2022-09-26T22:25:42.802Z,12.90
2022-09-26T22:28:12.204Z,12.87
2022-09-26T22:30:41.470Z,13.40
2022-09-26T22:33:11.560Z,13.73
2022-09-26T22:35:42.381Z,13.97
2022-09-26T22:38:11.519Z,13.87
2022-09-26T22:40:40.846Z,14.13
2022-09-26T22:43:10.259Z,13.77
2022-09-26T22:45:39.512Z,13.33
2022-09-26T22:48:08.773Z,14.50
2022-09-26T22:50:37.950Z,14.00
2022-09-26T22:53:08.918Z,14.17
2022-09-26T22:55:38.184Z,14.23
2022-09-26T22:58:07.414Z,14.50
2022-09-26T23:00:36.523Z,13.53
2022-09-26T23:03:05.743Z,13.87
2022-09-26T23:05:35.594Z,13.67
2022-09-26T23:08:05.851Z,13.07
2022-09-26T23:10:36.753Z,12.97
2022-09-26T23:13:05.994Z,13.13
2022-09-26T23:15:35.222Z,13.37
2022-09-26T23:18:04.350Z,12.93
2022-09-26T23:20:33.513Z,13.77
2022-09-26T23:23:02.716Z,13.47
2022-09-26T23:25:32.752Z,12.77
2022-09-26T23:28:03.825Z,13.60
2022-09-26T23:30:33.190Z,13.33
2022-09-26T23:33:02.627Z,13.57
2022-09-26T23:35:31.811Z,12.40
2022-09-26T23:38:01.221Z,13.43
2022-09-26T23:40:32.526Z,15.10
2022-09-26T23:43:03.262Z,14.40
2022-09-26T23:45:32.456Z,14.17
2022-09-26T23:48:01.775Z,14.23
2022-09-26T23:50:30.806Z,13.93
2022-09-26T23:53:04.407Z,16.67
2022-09-26T23:55:34.889Z,14.63
2022-09-26T23:58:05.641Z,15.63
